Kalamazoo METAR

KAZO 200953Z AUTO 00000KT 7SM FEW024 OVC031 02/01 A3008 RMK AO2 SLP194 T00220006

Kalamazoo TAF

TAF AMD KAZO 200948Z 2010/2106 VRB03KT 6SM BR OVC020 FM202100 22005KT P6SM OVC025 FM210200 16004KT P6SM BKN050